Aransas Pass, TX (78336)

12:51 AM CDT on September 04, 2015 (GMT -0500)
Gas Lite Village | | Change Station
CLOSE
Current Station
Personal Weather Station
Location: Aransas Pass, TX
Elevation: 18 ft
Nearby Weather Stations

Elev 18 ft 27.92 °N, 97.16 °W | Updated 9 seconds ago

Scattered Clouds
Scattered Clouds
82.2 °F
Feels Like 92 °F
N
1.4
Wind Variable Wind from South
Gusts 3.5 mph

Today
High -- | Low -- °F
--% Chance of Precip.
Yesterday
High -- | Low -- °F
Precip. -- in
7:08 AM 7:46 PM
Waning Gibbous, 63% visible
Pressure 29.87 in
Visibility 10.0 miles
Clouds Scattered Clouds 2100 ft
Heat Index 92 °F
Dew Point 79 °F
Humidity 89%
Rainfall 0.00 in
Snow Depth Not available.
UV 0 out of 12
Pollen 7.20 out of 12
Air Quality Not available.
Flu Activity Not available.
METAR KTFP 040535Z AUTO 15008KT 10SM SCT021 28/25 A2987 RMK AO2 T02810246
Pressure 29.87 in
Visibility 10.0 miles
Clouds Scattered Clouds 2100 ft
Heat Index 92 °F
Dew Point 79 °F
Humidity 89%
Rainfall 0.00 in
Snow Depth Not available.
UV 0 out of 12
Pollen 7.20 out of 12
Air Quality Not available.
Flu Activity Not available.
METAR KTFP 040535Z AUTO 15008KT 10SM SCT021 28/25 A2987 RMK AO2 T02810246

10-Day Weather Forecast

×

Almanac

Astronomy

Sep. 04, 2015 Rise Set
Actual Time
Civil Twilight
Nautical Twilight
Astronomical Twilight
Moon
Length of Visible Light
Length of Day
Tomorrow will be .
, % of the Moon is Illuminated

Today's Extremes

State Highs State Lows

Community

WunderPhotos

Upload Photos

1,852,129 photos uploaded!

WunderBlogs® & News

Nearby

Air Quality

  Air Quality AQ Index Pollutant
Not available.

Snow Depth

Station Depth Elevation

Earthquake Activity

City Distance Mag. Time & Date
Minimum magnitude displayed is 2.5.

Coastal Water Temperatures

Place Temperature

Stations

Nearby Weather Stations

Station Location Temp. Windchill Dew Point Humidity Wind Precip. Elev Updated Type